createdAt,value
2023-02-11T00:00:20.793Z,6.17
2023-02-11T00:02:48.183Z,6.18
2023-02-11T00:05:15.213Z,6.24
2023-02-11T00:07:42.100Z,6.21
2023-02-11T00:10:09.589Z,6.26
2023-02-11T00:12:36.943Z,6.23
2023-02-11T00:15:04.359Z,6.20
2023-02-11T00:17:32.071Z,6.27
2023-02-11T00:19:58.910Z,6.32
2023-02-11T00:22:25.698Z,6.17
2023-02-11T00:24:52.490Z,6.29
2023-02-11T00:27:19.287Z,6.32
2023-02-11T00:29:46.168Z,6.31
2023-02-11T00:32:12.936Z,6.34
2023-02-11T00:34:39.802Z,6.32
2023-02-11T00:37:06.760Z,6.36
2023-02-11T00:39:33.631Z,6.36
2023-02-11T00:42:00.769Z,6.36
2023-02-11T00:44:27.655Z,6.31
2023-02-11T00:46:54.505Z,6.22
2023-02-11T00:49:21.343Z,6.23
2023-02-11T00:51:48.159Z,6.19
2023-02-11T00:54:15.014Z,6.16
2023-02-11T00:56:41.788Z,6.14
2023-02-11T00:59:09.276Z,6.12
2023-02-11T01:01:36.456Z,6.10
2023-02-11T01:04:03.465Z,6.08
2023-02-11T01:06:30.344Z,6.10
2023-02-11T01:08:57.127Z,6.10
2023-02-11T01:11:24.150Z,6.09
2023-02-11T01:13:51.354Z,6.07
2023-02-11T01:16:19.498Z,6.10
2023-02-11T01:18:46.655Z,6.06
2023-02-11T01:21:13.668Z,6.04
2023-02-11T01:23:40.528Z,6.01
2023-02-11T01:26:07.514Z,6.05
2023-02-11T01:28:34.669Z,6.05
2023-02-11T01:31:02.238Z,6.04
2023-02-11T01:33:29.492Z,6.02
2023-02-11T01:35:59.895Z,6.06
2023-02-11T01:38:26.741Z,6.04
2023-02-11T01:40:55.510Z,6.01
2023-02-11T01:43:23.210Z,5.98
2023-02-11T01:45:56.223Z,5.99
2023-02-11T01:48:43.469Z,5.98
2023-02-11T01:51:16.550Z,5.95
2023-02-11T01:54:02.829Z,5.98
2023-02-11T01:56:50.053Z,5.97
2023-02-11T01:59:20.076Z,6.00
2023-02-11T02:01:50.263Z,6.03
2023-02-11T02:04:18.487Z,6.04
2023-02-11T02:07:05.590Z,6.07
2023-02-11T02:09:34.588Z,6.08
2023-02-11T02:12:01.361Z,6.08
2023-02-11T02:14:28.975Z,6.12
2023-02-11T02:16:55.803Z,6.17
2023-02-11T02:19:23.225Z,6.17
2023-02-11T02:22:10.423Z,6.20
2023-02-11T02:24:43.097Z,6.23
2023-02-11T02:27:09.863Z,6.24
2023-02-11T02:29:51.981Z,6.26
2023-02-11T02:32:37.297Z,6.28
2023-02-11T02:35:10.329Z,6.25
2023-02-11T02:37:40.722Z,6.28
2023-02-11T02:40:18.273Z,6.27
2023-02-11T02:42:45.552Z,6.22
2023-02-11T02:45:13.483Z,6.29
2023-02-11T02:47:40.281Z,6.27
2023-02-11T02:50:07.922Z,6.28
2023-02-11T02:52:46.405Z,6.27
2023-02-11T02:55:16.383Z,6.28
2023-02-11T02:57:43.309Z,6.29
2023-02-11T03:00:28.424Z,6.27
2023-02-11T03:03:05.356Z,6.31
2023-02-11T03:05:51.238Z,6.31
2023-02-11T03:08:24.266Z,6.35
2023-02-11T03:10:52.155Z,6.35
2023-02-11T03:13:21.322Z,6.35
2023-02-11T03:15:50.424Z,6.40
2023-02-11T03:18:19.609Z,6.36
2023-02-11T03:20:51.976Z,6.42
2023-02-11T03:23:27.921Z,6.39
2023-02-11T03:26:24.511Z,6.41
2023-02-11T03:29:10.211Z,6.47
2023-02-11T03:31:40.385Z,6.52
2023-02-11T03:34:14.603Z,6.51
2023-02-11T03:36:45.918Z,6.49
2023-02-11T03:39:17.594Z,6.52
2023-02-11T03:41:45.638Z,6.54
2023-02-11T03:44:14.747Z,6.48
2023-02-11T03:46:43.310Z,6.53
2023-02-11T03:49:13.352Z,6.53
2023-02-11T03:51:40.423Z,6.56
2023-02-11T03:54:10.815Z,6.57
2023-02-11T03:56:43.630Z,6.50
2023-02-11T03:59:10.373Z,6.52
2023-02-11T04:01:37.291Z,6.59
2023-02-11T04:04:04.240Z,6.56
2023-02-11T04:06:31.085Z,6.54
2023-02-11T04:08:57.937Z,6.59
2023-02-11T04:11:24.737Z,6.62
2023-02-11T04:13:51.572Z,6.60
2023-02-11T04:16:18.403Z,6.61
2023-02-11T04:18:45.249Z,6.58
2023-02-11T04:21:12.022Z,6.58
2023-02-11T04:23:38.841Z,6.59
2023-02-11T04:26:05.945Z,6.60
2023-02-11T04:28:32.919Z,6.61
2023-02-11T04:30:59.812Z,6.65
2023-02-11T04:33:26.926Z,6.67
2023-02-11T04:35:53.725Z,6.66
2023-02-11T04:38:24.065Z,6.69
2023-02-11T04:40:50.965Z,6.69
2023-02-11T04:43:17.750Z,6.71
2023-02-11T04:45:44.549Z,6.75
2023-02-11T04:48:11.411Z,6.78
2023-02-11T04:50:38.222Z,6.81
2023-02-11T04:53:05.034Z,6.82
2023-02-11T04:55:31.908Z,6.84
2023-02-11T04:57:58.805Z,6.91
2023-02-11T05:00:25.562Z,6.86
2023-02-11T05:02:52.686Z,6.92
2023-02-11T05:05:19.649Z,6.98
2023-02-11T05:07:46.784Z,7.00
2023-02-11T05:10:13.630Z,7.04
2023-02-11T05:12:40.648Z,7.06
2023-02-11T05:15:07.622Z,7.07
2023-02-11T05:17:34.536Z,7.07
2023-02-11T05:20:02.711Z,7.09
2023-02-11T05:22:30.069Z,7.14
2023-02-11T05:24:56.869Z,7.04
2023-02-11T05:27:23.764Z,7.13
2023-02-11T05:29:50.565Z,7.15
2023-02-11T05:32:17.396Z,7.18
2023-02-11T05:34:44.251Z,7.11
2023-02-11T05:37:11.038Z,7.18
2023-02-11T05:39:37.817Z,7.17
2023-02-11T05:42:04.766Z,7.18
2023-02-11T05:44:31.732Z,7.16
2023-02-11T05:46:58.661Z,7.22
2023-02-11T05:49:25.627Z,7.22
2023-02-11T05:51:52.480Z,7.22
2023-02-11T05:54:19.423Z,7.19
2023-02-11T05:56:46.239Z,7.23
2023-02-11T05:59:16.062Z,7.21
2023-02-11T06:01:43.042Z,7.22
2023-02-11T06:04:09.930Z,7.22
2023-02-11T06:06:36.874Z,7.22
2023-02-11T06:09:03.759Z,7.19
2023-02-11T06:11:30.675Z,7.17
2023-02-11T06:13:57.559Z,7.17
2023-02-11T06:16:25.816Z,7.20
2023-02-11T06:18:52.676Z,7.21
2023-02-11T06:21:19.914Z,7.29
2023-02-11T06:23:47.147Z,7.32
2023-02-11T06:26:19.974Z,7.33
2023-02-11T06:28:46.868Z,7.37
2023-02-11T06:31:14.052Z,7.40
2023-02-11T06:33:41.015Z,7.41
2023-02-11T06:36:18.908Z,7.43
2023-02-11T06:38:46.210Z,7.42
2023-02-11T06:41:14.457Z,7.49
2023-02-11T06:43:41.578Z,7.49
2023-02-11T06:46:08.603Z,7.54
2023-02-11T06:48:36.045Z,7.56
2023-02-11T06:51:04.777Z,7.55
2023-02-11T06:53:32.028Z,7.56
2023-02-11T06:56:02.753Z,7.59
2023-02-11T06:58:29.601Z,7.62
2023-02-11T07:00:56.484Z,7.60
2023-02-11T07:03:23.520Z,7.57
2023-02-11T07:05:50.605Z,7.66
2023-02-11T07:08:17.709Z,7.63
2023-02-11T07:10:44.589Z,7.65
2023-02-11T07:13:11.731Z,7.59
2023-02-11T07:15:38.531Z,7.67
2023-02-11T07:18:05.393Z,7.72
2023-02-11T07:20:32.216Z,7.80
2023-02-11T07:23:00.153Z,7.76
2023-02-11T07:25:26.956Z,7.81
2023-02-11T07:27:53.793Z,7.81
2023-02-11T07:30:20.637Z,7.82
2023-02-11T07:32:47.497Z,7.84
2023-02-11T07:35:14.893Z,7.81
2023-02-11T07:37:41.767Z,7.90
2023-02-11T07:40:09.186Z,7.81
2023-02-11T07:42:36.053Z,7.94
2023-02-11T07:45:03.284Z,7.94
2023-02-11T07:47:30.147Z,7.89
2023-02-11T07:49:57.051Z,7.85
2023-02-11T07:52:24.037Z,7.80
2023-02-11T07:54:51.126Z,7.88
2023-02-11T07:57:17.928Z,7.88
2023-02-11T07:59:44.738Z,7.84
2023-02-11T08:02:12.095Z,7.85
2023-02-11T08:04:39.116Z,7.82
2023-02-11T08:07:06.840Z,7.83
2023-02-11T08:09:34.639Z,7.82
2023-02-11T08:12:01.686Z,7.87
2023-02-11T08:14:29.058Z,7.81
2023-02-11T08:16:55.958Z,7.80
2023-02-11T08:19:22.863Z,7.89
2023-02-11T08:21:49.749Z,7.93
2023-02-11T08:24:16.655Z,7.95
2023-02-11T08:26:43.539Z,7.89
2023-02-11T08:29:12.523Z,7.97
2023-02-11T08:31:40.773Z,8.05
2023-02-11T08:34:07.888Z,8.05
2023-02-11T08:36:36.129Z,8.10
2023-02-11T08:39:18.059Z,8.14
2023-02-11T08:41:48.378Z,8.08
2023-02-11T08:44:15.183Z,8.13
2023-02-11T08:46:42.026Z,8.23
2023-02-11T08:49:08.871Z,8.25
2023-02-11T08:51:35.731Z,8.22
2023-02-11T08:54:02.570Z,8.29
2023-02-11T08:56:31.450Z,8.31
2023-02-11T08:58:58.394Z,8.23
2023-02-11T09:01:27.127Z,8.28
2023-02-11T09:03:54.053Z,8.34
2023-02-11T09:06:22.397Z,8.38
2023-02-11T09:08:50.828Z,8.38
2023-02-11T09:11:18.683Z,8.39
2023-02-11T09:13:46.085Z,8.32
2023-02-11T09:16:20.400Z,8.30
2023-02-11T09:18:47.356Z,8.39
2023-02-11T09:21:14.700Z,8.44
2023-02-11T09:23:43.975Z,8.47
2023-02-11T09:26:13.956Z,8.46
2023-02-11T09:28:41.111Z,8.45
2023-02-11T09:31:08.989Z,8.52
2023-02-11T09:33:36.309Z,8.59
2023-02-11T09:36:05.317Z,8.60
2023-02-11T09:38:32.177Z,8.64
2023-02-11T09:40:59.334Z,8.64
2023-02-11T09:43:33.104Z,8.69
2023-02-11T09:46:00.187Z,8.74
2023-02-11T09:48:27.406Z,8.81
2023-02-11T09:50:56.453Z,8.77
2023-02-11T09:53:27.554Z,8.85
2023-02-11T09:55:56.250Z,8.94
2023-02-11T09:58:26.366Z,8.87
2023-02-11T10:01:05.191Z,8.97
2023-02-11T10:03:38.202Z,8.95
2023-02-11T10:06:27.800Z,8.93
2023-02-11T10:08:57.802Z,8.97
2023-02-11T10:11:40.639Z,8.93
2023-02-11T10:14:25.453Z,8.94
2023-02-11T10:17:11.152Z,9.08
2023-02-11T10:19:56.677Z,9.02
2023-02-11T10:22:23.637Z,9.07
2023-02-11T10:24:52.872Z,9.04
2023-02-11T10:27:20.874Z,9.03
2023-02-11T10:29:54.357Z,9.05
2023-02-11T10:32:27.052Z,9.08
2023-02-11T10:34:56.372Z,9.09
2023-02-11T10:37:23.372Z,9.05
2023-02-11T10:39:50.164Z,9.18
2023-02-11T10:42:17.367Z,9.12
2023-02-11T10:44:54.637Z,9.10
2023-02-11T10:47:23.483Z,9.21
2023-02-11T10:49:50.338Z,9.22
2023-02-11T10:52:28.462Z,9.24
2023-02-11T10:54:56.858Z,9.24
2023-02-11T10:57:26.121Z,9.26
2023-02-11T10:59:57.046Z,9.31
2023-02-11T11:02:36.753Z,9.27
2023-02-11T11:05:05.951Z,9.19
2023-02-11T11:07:33.541Z,9.27
2023-02-11T11:10:07.426Z,9.28
2023-02-11T11:12:35.101Z,9.27
2023-02-11T11:15:11.227Z,9.27
2023-02-11T11:17:38.699Z,9.17
2023-02-11T11:20:15.972Z,9.16
2023-02-11T11:22:43.487Z,9.18
2023-02-11T11:25:26.786Z,9.17
2023-02-11T11:27:55.853Z,9.12
2023-02-11T11:30:23.547Z,9.05
2023-02-11T11:32:50.388Z,9.06
2023-02-11T11:35:28.374Z,9.03
2023-02-11T11:38:05.106Z,9.03
2023-02-11T11:40:33.343Z,9.07
2023-02-11T11:43:03.801Z,9.08
2023-02-11T11:45:30.675Z,9.13
2023-02-11T11:48:13.972Z,9.27
2023-02-11T11:50:45.600Z,9.28
2023-02-11T11:53:15.535Z,9.19
2023-02-11T11:55:45.722Z,9.08
2023-02-11T11:58:17.373Z,9.20
2023-02-11T12:00:51.272Z,9.17
2023-02-11T12:03:31.119Z,9.21
2023-02-11T12:06:16.946Z,9.21
2023-02-11T12:08:43.747Z,9.22
2023-02-11T12:11:10.562Z,9.19
2023-02-11T12:13:40.294Z,9.22
2023-02-11T12:16:22.279Z,9.20
2023-02-11T12:19:01.291Z,9.12
2023-02-11T12:21:29.730Z,9.20
2023-02-11T12:23:56.466Z,9.23
2023-02-11T12:26:43.588Z,9.22
2023-02-11T12:29:21.143Z,9.19
2023-02-11T12:32:07.362Z,9.19
2023-02-11T12:34:52.676Z,9.20
2023-02-11T12:37:20.051Z,9.18
2023-02-11T12:39:56.556Z,9.14
2023-02-11T12:43:02.541Z,9.14
2023-02-11T12:45:29.633Z,9.14
2023-02-11T12:47:59.291Z,9.16
2023-02-11T12:50:41.642Z,9.21
2023-02-11T12:53:11.469Z,9.25
2023-02-11T12:55:40.135Z,9.28
2023-02-11T12:58:12.160Z,9.12
2023-02-11T13:00:42.537Z,9.14
2023-02-11T13:03:09.367Z,9.26
2023-02-11T13:05:37.565Z,9.25
2023-02-11T13:08:25.227Z,9.25
2023-02-11T13:10:57.754Z,9.26
2023-02-11T13:13:30.743Z,9.29
2023-02-11T13:16:08.522Z,9.28
2023-02-11T13:18:36.987Z,9.32
2023-02-11T13:21:10.264Z,9.30
2023-02-11T13:23:57.821Z,9.20
2023-02-11T13:26:28.000Z,9.27
2023-02-11T13:28:58.807Z,9.33
2023-02-11T13:31:27.668Z,9.26
2023-02-11T13:33:54.675Z,9.31
2023-02-11T13:36:22.916Z,9.24
2023-02-11T13:38:54.002Z,9.25
2023-02-11T13:41:31.774Z,9.23
2023-02-11T13:44:01.905Z,9.31
2023-02-11T13:46:30.170Z,9.40
2023-02-11T13:48:57.707Z,9.36
2023-02-11T13:51:45.072Z,9.35
2023-02-11T13:54:20.919Z,9.35
2023-02-11T13:57:07.737Z,9.35
2023-02-11T13:59:36.077Z,9.30
2023-02-11T14:02:23.885Z,9.28
2023-02-11T14:05:38.550Z,9.26
2023-02-11T14:08:29.933Z,9.32
2023-02-11T14:10:57.057Z,9.28
2023-02-11T14:13:25.811Z,9.30
2023-02-11T14:16:09.431Z,9.28
2023-02-11T14:18:39.839Z,9.12
2023-02-11T14:21:15.635Z,9.18
2023-02-11T14:23:42.510Z,9.18
2023-02-11T14:26:21.385Z,9.23
2023-02-11T14:29:08.436Z,9.16
2023-02-11T14:31:51.514Z,9.12
2023-02-11T14:34:27.924Z,9.17
2023-02-11T14:37:14.968Z,9.31
2023-02-11T14:39:47.696Z,9.26
2023-02-11T14:42:20.869Z,9.25
2023-02-11T14:44:50.902Z,9.27
2023-02-11T14:47:20.098Z,9.26
2023-02-11T14:49:48.251Z,9.19
2023-02-11T14:52:24.405Z,9.19
2023-02-11T14:54:52.330Z,9.14
2023-02-11T14:57:20.106Z,9.11
2023-02-11T14:59:55.181Z,9.21
2023-02-11T15:02:24.376Z,9.17
2023-02-11T15:04:51.478Z,9.07
2023-02-11T15:07:18.510Z,9.04
2023-02-11T15:09:51.203Z,9.08
2023-02-11T15:12:25.344Z,9.17
2023-02-11T15:14:55.221Z,9.15
2023-02-11T15:17:27.382Z,9.18
2023-02-11T15:19:55.650Z,9.16
2023-02-11T15:22:27.719Z,9.15
2023-02-11T15:25:02.822Z,9.16
2023-02-11T15:27:38.300Z,9.12
2023-02-11T15:30:17.819Z,9.10
2023-02-11T15:32:45.531Z,9.13
2023-02-11T15:35:13.713Z,9.17
2023-02-11T15:37:41.161Z,9.15
2023-02-11T15:40:12.767Z,9.10
2023-02-11T15:42:52.564Z,9.13
2023-02-11T15:45:20.575Z,9.06
2023-02-11T15:47:49.393Z,9.11
2023-02-11T15:50:23.520Z,9.00
2023-02-11T15:52:50.868Z,9.07
2023-02-11T15:55:17.912Z,9.08
2023-02-11T15:57:46.303Z,9.09
2023-02-11T16:00:21.860Z,9.10
2023-02-11T16:02:51.161Z,9.09
2023-02-11T16:05:26.452Z,9.13
2023-02-11T16:07:53.760Z,9.17
2023-02-11T16:10:36.419Z,9.22
2023-02-11T16:13:17.454Z,9.15
2023-02-11T16:15:46.991Z,9.13
2023-02-11T16:18:21.030Z,9.12
2023-02-11T16:20:49.865Z,9.19
2023-02-11T16:23:22.629Z,9.13
2023-02-11T16:25:52.147Z,9.15
2023-02-11T16:28:19.727Z,9.11
2023-02-11T16:30:51.523Z,9.13
2023-02-11T16:33:18.648Z,9.16
2023-02-11T16:35:48.068Z,9.08
2023-02-11T16:38:16.181Z,9.07
2023-02-11T16:40:44.502Z,9.05
2023-02-11T16:43:11.846Z,9.04
2023-02-11T16:45:39.367Z,9.00
2023-02-11T16:48:07.704Z,9.02
2023-02-11T16:50:35.596Z,8.99
2023-02-11T16:53:06.560Z,9.00
2023-02-11T16:55:34.933Z,8.86
2023-02-11T16:58:01.952Z,8.79
2023-02-11T17:00:28.850Z,8.79
2023-02-11T17:02:56.191Z,8.83
2023-02-11T17:05:25.098Z,8.88
2023-02-11T17:07:52.612Z,8.88
2023-02-11T17:10:21.578Z,8.85
2023-02-11T17:12:49.428Z,8.83
2023-02-11T17:15:16.301Z,8.78
2023-02-11T17:17:43.278Z,8.75
2023-02-11T17:20:14.054Z,8.76
2023-02-11T17:22:41.298Z,8.77
2023-02-11T17:25:08.415Z,8.71
2023-02-11T17:27:35.296Z,8.76
2023-02-11T17:30:02.247Z,8.73
2023-02-11T17:32:29.197Z,8.70
2023-02-11T17:34:56.308Z,8.68
2023-02-11T17:37:23.231Z,8.63
2023-02-11T17:39:51.245Z,8.61
2023-02-11T17:42:19.397Z,8.55
2023-02-11T17:44:46.774Z,8.51
2023-02-11T17:47:13.980Z,8.49
2023-02-11T17:49:41.376Z,8.56
2023-02-11T17:52:08.711Z,8.55
2023-02-11T17:54:36.693Z,8.49
2023-02-11T17:57:03.567Z,8.49
2023-02-11T17:59:35.413Z,8.49
2023-02-11T18:02:02.875Z,8.42
2023-02-11T18:04:29.922Z,8.45
2023-02-11T18:06:58.066Z,8.49
2023-02-11T18:09:29.053Z,8.52
2023-02-11T18:11:56.177Z,8.54
2023-02-11T18:14:23.529Z,8.54
2023-02-11T18:16:52.048Z,8.57
2023-02-11T18:19:19.151Z,8.58
2023-02-11T18:21:48.788Z,8.58
2023-02-11T18:24:16.397Z,8.54
2023-02-11T18:26:43.335Z,8.62
2023-02-11T18:29:10.407Z,8.61
2023-02-11T18:31:37.939Z,8.66
2023-02-11T18:34:07.282Z,8.59
2023-02-11T18:36:34.832Z,8.59
2023-02-11T18:39:01.725Z,8.57
2023-02-11T18:41:29.223Z,8.58
2023-02-11T18:43:58.510Z,8.55
2023-02-11T18:46:25.417Z,8.52
2023-02-11T18:48:56.161Z,8.48
2023-02-11T18:51:23.842Z,8.54
2023-02-11T18:53:50.911Z,8.50
2023-02-11T18:56:20.843Z,8.42
2023-02-11T18:58:48.021Z,8.51
2023-02-11T19:01:20.967Z,8.47
2023-02-11T19:03:48.468Z,8.53
2023-02-11T19:06:25.732Z,8.53
2023-02-11T19:08:53.732Z,8.59
2023-02-11T19:11:41.624Z,8.54
2023-02-11T19:14:10.339Z,8.48
2023-02-11T19:16:37.952Z,8.51
2023-02-11T19:19:05.274Z,8.47
2023-02-11T19:21:32.675Z,8.53
2023-02-11T19:24:00.506Z,8.56
2023-02-11T19:26:27.857Z,8.51
2023-02-11T19:28:55.205Z,8.54
2023-02-11T19:31:22.134Z,8.52
2023-02-11T19:33:49.067Z,8.58
2023-02-11T19:36:21.235Z,8.62
2023-02-11T19:38:48.068Z,8.64
2023-02-11T19:41:22.097Z,8.51
2023-02-11T19:43:53.351Z,8.49
2023-02-11T19:46:21.241Z,8.51
2023-02-11T19:48:48.629Z,8.59
2023-02-11T19:51:15.694Z,8.58
2023-02-11T19:53:43.155Z,8.50
2023-02-11T19:56:10.596Z,8.58
2023-02-11T19:58:38.411Z,8.57
2023-02-11T20:01:13.113Z,8.49
2023-02-11T20:03:42.407Z,8.50
2023-02-11T20:06:12.218Z,8.57
2023-02-11T20:08:39.134Z,8.53
2023-02-11T20:11:11.165Z,8.57
2023-02-11T20:13:38.742Z,8.57
2023-02-11T20:16:06.854Z,8.53
2023-02-11T20:18:34.253Z,8.52
2023-02-11T20:21:06.250Z,8.46
2023-02-11T20:23:33.133Z,8.47
2023-02-11T20:26:04.696Z,8.46
2023-02-11T20:28:31.647Z,8.52
2023-02-11T20:30:59.002Z,8.54
2023-02-11T20:33:25.869Z,8.52
2023-02-11T20:35:59.900Z,8.58
2023-02-11T20:38:26.865Z,8.58
2023-02-11T20:40:54.054Z,8.54
2023-02-11T20:43:21.248Z,8.54
2023-02-11T20:45:48.302Z,8.57
2023-02-11T20:48:15.337Z,8.56
2023-02-11T20:50:42.146Z,8.62
2023-02-11T20:53:10.655Z,8.59
2023-02-11T20:55:38.515Z,8.52
2023-02-11T20:58:08.439Z,8.58
2023-02-11T21:00:35.835Z,8.63
2023-02-11T21:03:03.317Z,8.66
2023-02-11T21:05:30.802Z,8.62
2023-02-11T21:07:57.799Z,8.57
2023-02-11T21:10:25.118Z,8.63
2023-02-11T21:12:52.015Z,8.64
2023-02-11T21:15:19.001Z,8.64
2023-02-11T21:17:46.242Z,8.64
2023-02-11T21:20:13.102Z,8.66
2023-02-11T21:22:39.943Z,8.64
2023-02-11T21:25:07.063Z,8.60
2023-02-11T21:27:34.423Z,8.60
2023-02-11T21:30:01.600Z,8.63
2023-02-11T21:32:28.463Z,8.67
2023-02-11T21:34:55.468Z,8.59
2023-02-11T21:37:23.407Z,8.62
2023-02-11T21:39:50.292Z,8.71
2023-02-11T21:42:17.206Z,8.67
2023-02-11T21:44:44.161Z,8.76
2023-02-11T21:47:11.084Z,8.75
2023-02-11T21:49:38.838Z,8.83
2023-02-11T21:52:05.749Z,8.86
2023-02-11T21:54:33.145Z,8.90
2023-02-11T21:57:03.286Z,8.86
2023-02-11T21:59:31.915Z,8.79
2023-02-11T22:01:58.996Z,8.81
2023-02-11T22:04:26.487Z,8.76
2023-02-11T22:06:53.452Z,8.79
2023-02-11T22:09:20.707Z,8.85
2023-02-11T22:11:49.257Z,8.81
2023-02-11T22:14:17.935Z,8.87
2023-02-11T22:16:45.577Z,8.91
2023-02-11T22:19:12.532Z,8.90
2023-02-11T22:21:39.585Z,8.90
2023-02-11T22:24:06.971Z,8.86
2023-02-11T22:26:34.181Z,8.75
2023-02-11T22:29:01.215Z,8.73
2023-02-11T22:31:29.714Z,8.77
2023-02-11T22:33:57.459Z,8.76
2023-02-11T22:36:25.798Z,8.80
2023-02-11T22:38:52.801Z,8.86
2023-02-11T22:41:21.061Z,8.80
2023-02-11T22:43:48.461Z,8.86
2023-02-11T22:46:16.729Z,8.85
2023-02-11T22:48:43.748Z,8.86
2023-02-11T22:51:15.291Z,8.88
2023-02-11T22:53:43.686Z,8.91
2023-02-11T22:56:17.489Z,8.95
2023-02-11T22:58:45.093Z,9.00
2023-02-11T23:01:12.958Z,8.97
2023-02-11T23:03:40.444Z,8.81
2023-02-11T23:06:07.346Z,8.81
2023-02-11T23:08:34.479Z,8.86
2023-02-11T23:11:09.766Z,8.88
2023-02-11T23:13:37.837Z,8.89
2023-02-11T23:16:15.685Z,8.79
2023-02-11T23:18:43.504Z,8.73
2023-02-11T23:21:12.783Z,8.73
2023-02-11T23:23:39.780Z,8.66
2023-02-11T23:26:09.919Z,8.67
2023-02-11T23:28:37.057Z,8.68
2023-02-11T23:31:20.618Z,8.61
2023-02-11T23:33:48.224Z,8.59
2023-02-11T23:36:15.548Z,8.64
2023-02-11T23:38:42.459Z,8.56
2023-02-11T23:41:09.708Z,8.60
2023-02-11T23:43:36.577Z,8.58
2023-02-11T23:46:03.732Z,8.48
2023-02-11T23:48:30.750Z,8.51
2023-02-11T23:50:57.698Z,8.61
2023-02-11T23:53:24.613Z,8.63
2023-02-11T23:55:51.427Z,8.60
2023-02-11T23:58:18.387Z,8.61
